createdAt,value
2023-05-09T00:00:18.526Z,43.32
2023-05-09T03:01:18.674Z,47.32
2023-05-09T03:03:47.210Z,47.48
2023-05-09T03:06:17.016Z,47.50
2023-05-09T03:08:46.090Z,47.51
2023-05-09T03:11:15.195Z,47.52
2023-05-09T03:13:44.829Z,47.67
2023-05-09T03:16:15.508Z,47.68
2023-05-09T03:18:44.721Z,47.69
2023-05-09T03:21:13.820Z,47.75
2023-05-09T03:23:42.916Z,47.85
2023-05-09T03:26:11.844Z,48.12
2023-05-09T03:28:40.694Z,48.03
2023-05-09T03:31:09.912Z,48.08
2023-05-09T03:33:38.797Z,48.11
2023-05-09T03:36:08.256Z,48.19
2023-05-09T03:38:37.822Z,48.46
2023-05-09T03:41:06.986Z,48.24
2023-05-09T03:43:35.961Z,48.25
2023-05-09T03:46:04.722Z,48.38
2023-05-09T03:48:33.855Z,48.58
2023-05-09T03:51:03.661Z,48.58
2023-05-09T03:53:33.028Z,48.65
2023-05-09T03:56:01.238Z,48.56
2023-05-09T03:58:31.821Z,48.88
2023-05-09T04:01:01.956Z,48.83
2023-05-09T04:03:32.490Z,48.83
2023-05-09T04:06:01.746Z,48.95
2023-05-09T04:08:37.792Z,49.06
2023-05-09T04:11:06.943Z,49.16
2023-05-09T04:13:36.618Z,49.30
2023-05-09T04:16:09.837Z,49.20
2023-05-09T04:18:42.819Z,49.55
2023-05-09T04:21:11.901Z,49.35
2023-05-09T04:23:41.185Z,49.51
2023-05-09T04:26:11.317Z,48.86
2023-05-09T04:28:40.227Z,48.22
2023-05-09T04:31:10.555Z,48.11
2023-05-09T04:33:39.734Z,47.87
2023-05-09T04:36:08.481Z,47.63
2023-05-09T04:38:37.620Z,47.28
2023-05-09T04:41:09.716Z,46.92
2023-05-09T04:43:39.026Z,46.56
2023-05-09T04:46:08.398Z,46.31
2023-05-09T04:48:37.274Z,46.22
2023-05-09T04:51:06.045Z,46.06
2023-05-09T04:53:36.845Z,46.11
2023-05-09T04:56:06.282Z,45.97
2023-05-09T04:58:39.126Z,45.66
2023-05-09T05:01:11.288Z,45.19
2023-05-09T05:03:40.049Z,45.06
2023-05-09T05:06:09.087Z,44.91
2023-05-09T05:08:38.709Z,44.73
2023-05-09T05:11:07.536Z,44.70
2023-05-09T05:13:36.865Z,44.44
2023-05-09T05:16:05.909Z,44.25
2023-05-09T05:18:35.005Z,44.22
2023-05-09T05:21:05.078Z,43.97
2023-05-09T05:23:34.339Z,43.96
2023-05-09T05:26:03.505Z,43.76
2023-05-09T05:28:33.275Z,43.55
2023-05-09T05:31:02.666Z,43.59
2023-05-09T05:33:31.606Z,43.43
2023-05-09T05:36:00.957Z,43.38
2023-05-09T05:38:30.073Z,42.94
2023-05-09T05:41:00.160Z,42.84
2023-05-09T05:43:29.931Z,42.60
2023-05-09T05:45:59.281Z,42.38
2023-05-09T05:48:27.817Z,41.78
2023-05-09T05:50:56.710Z,41.65
2023-05-09T05:53:32.722Z,41.38
2023-05-09T05:56:02.459Z,41.45
2023-05-09T05:58:32.613Z,41.14
2023-05-09T06:01:02.346Z,40.91
2023-05-09T06:03:32.662Z,40.96
2023-05-09T06:06:04.418Z,41.20
2023-05-09T06:08:34.122Z,41.60
2023-05-09T06:11:03.562Z,41.55
2023-05-09T06:13:32.860Z,41.44
2023-05-09T06:16:18.574Z,41.45
2023-05-09T06:18:52.067Z,41.50
2023-05-09T06:21:23.468Z,41.09
2023-05-09T06:24:07.654Z,41.32
2023-05-09T06:26:39.905Z,41.32
2023-05-09T06:29:08.834Z,41.16
2023-05-09T06:31:39.353Z,40.86
2023-05-09T06:34:08.287Z,40.78
2023-05-09T06:36:37.140Z,40.65
2023-05-09T06:39:05.911Z,40.67
2023-05-09T06:41:35.169Z,40.83
2023-05-09T06:44:03.878Z,40.48
2023-05-09T06:46:32.862Z,40.20
2023-05-09T06:49:04.866Z,39.92
2023-05-09T06:51:33.468Z,39.81
2023-05-09T06:54:02.485Z,39.71
2023-05-09T06:56:31.857Z,39.52
2023-05-09T06:59:00.726Z,39.45
2023-05-09T07:01:29.371Z,39.26
2023-05-09T07:03:59.449Z,39.05
2023-05-09T07:06:28.162Z,38.91
2023-05-09T07:08:57.747Z,38.71
2023-05-09T07:11:27.397Z,38.54
2023-05-09T07:13:56.670Z,38.44
2023-05-09T07:16:25.257Z,38.19
2023-05-09T07:18:53.737Z,38.34
2023-05-09T07:21:22.523Z,38.33
2023-05-09T07:23:51.079Z,38.33
2023-05-09T07:26:20.277Z,37.96
2023-05-09T07:28:51.592Z,37.81
2023-05-09T07:31:20.586Z,37.89
2023-05-09T07:33:49.487Z,37.87
2023-05-09T07:36:18.598Z,37.76
2023-05-09T07:38:48.786Z,37.64
2023-05-09T07:41:16.939Z,37.51
2023-05-09T07:43:46.011Z,37.34
2023-05-09T07:46:15.301Z,37.03
2023-05-09T07:48:43.945Z,37.19
2023-05-09T07:51:12.847Z,37.02
2023-05-09T07:53:41.968Z,36.87
2023-05-09T07:56:10.901Z,36.71
2023-05-09T07:58:39.895Z,36.52
2023-05-09T08:01:08.451Z,36.38
2023-05-09T08:03:37.566Z,36.49
2023-05-09T08:06:06.043Z,36.49
2023-05-09T08:08:35.901Z,36.39
2023-05-09T08:11:05.930Z,36.51
2023-05-09T08:13:35.055Z,36.51
2023-05-09T08:16:04.633Z,36.48
2023-05-09T08:18:34.111Z,36.23
2023-05-09T08:21:03.116Z,36.29
2023-05-09T08:23:32.224Z,36.13
2023-05-09T08:26:01.305Z,35.98
2023-05-09T08:28:30.621Z,35.97
2023-05-09T08:30:59.818Z,35.60
2023-05-09T08:33:28.945Z,35.64
2023-05-09T08:35:58.055Z,35.70
2023-05-09T08:38:27.373Z,35.66
2023-05-09T08:41:02.062Z,35.58
2023-05-09T08:43:33.754Z,35.46
2023-05-09T08:46:10.491Z,35.58
2023-05-09T08:48:39.423Z,35.25
2023-05-09T08:51:08.630Z,35.14
2023-05-09T08:53:38.510Z,35.07
2023-05-09T08:56:07.770Z,34.97
2023-05-09T08:58:37.146Z,34.99
2023-05-09T09:01:07.752Z,34.88
2023-05-09T09:03:38.726Z,34.89
2023-05-09T09:06:09.511Z,34.83
2023-05-09T09:08:38.622Z,34.72
2023-05-09T09:11:07.950Z,34.66
2023-05-09T09:13:39.312Z,34.57
2023-05-09T09:16:14.808Z,34.48
2023-05-09T09:18:44.522Z,34.65
2023-05-09T09:21:16.749Z,34.72
2023-05-09T09:23:47.722Z,34.64
2023-05-09T09:26:17.299Z,34.40
2023-05-09T09:28:46.179Z,34.25
2023-05-09T09:31:26.392Z,34.13
2023-05-09T09:34:04.390Z,34.20
2023-05-09T09:36:33.646Z,34.21
2023-05-09T09:39:05.303Z,33.92
2023-05-09T09:41:35.402Z,34.13
2023-05-09T09:44:08.943Z,34.02
2023-05-09T09:46:44.670Z,34.10
2023-05-09T09:49:14.456Z,34.07
2023-05-09T09:51:44.027Z,33.93
2023-05-09T09:54:13.968Z,33.75
2023-05-09T09:56:44.344Z,33.58
2023-05-09T09:59:14.637Z,33.74
2023-05-09T10:02:05.133Z,33.59
2023-05-09T10:04:38.124Z,33.42
2023-05-09T10:07:07.847Z,33.76
2023-05-09T10:09:40.253Z,33.53
2023-05-09T10:12:08.840Z,33.50
2023-05-09T10:14:38.990Z,33.53
2023-05-09T10:17:07.826Z,33.38
2023-05-09T10:19:36.241Z,33.32
2023-05-09T10:22:06.014Z,33.30
2023-05-09T10:24:42.467Z,33.39
2023-05-09T10:27:11.757Z,33.33
2023-05-09T10:29:49.373Z,33.43
2023-05-09T10:32:52.984Z,33.22
2023-05-09T10:35:25.643Z,33.09
2023-05-09T10:37:57.730Z,33.08
2023-05-09T10:40:28.604Z,33.20
2023-05-09T10:42:57.499Z,33.24
2023-05-09T10:45:27.068Z,33.11
2023-05-09T10:47:56.713Z,32.86
2023-05-09T10:50:26.681Z,32.78
2023-05-09T10:53:04.961Z,32.70
2023-05-09T10:55:52.127Z,32.53
2023-05-09T10:58:22.219Z,32.66
2023-05-09T11:00:52.105Z,32.47
2023-05-09T11:03:21.704Z,32.62
2023-05-09T11:05:53.088Z,32.68
2023-05-09T11:08:22.112Z,32.49
2023-05-09T11:10:52.068Z,32.61
2023-05-09T11:13:23.679Z,32.60
2023-05-09T11:16:01.502Z,32.52
2023-05-09T11:18:31.510Z,32.45
2023-05-09T11:21:08.094Z,32.38
2023-05-09T11:23:39.686Z,32.45
2023-05-09T11:26:09.758Z,32.43
2023-05-09T11:28:39.997Z,32.33
2023-05-09T11:31:13.287Z,32.26
2023-05-09T11:33:43.155Z,32.35
2023-05-09T11:36:15.260Z,32.23
2023-05-09T11:38:44.384Z,32.26
2023-05-09T11:41:14.047Z,32.19
2023-05-09T11:43:47.382Z,32.09
2023-05-09T11:46:16.896Z,32.01
2023-05-09T11:48:45.791Z,32.02
2023-05-09T11:51:18.913Z,31.93
2023-05-09T11:53:52.018Z,31.80
2023-05-09T11:56:23.725Z,31.97
2023-05-09T11:58:52.994Z,31.95
2023-05-09T12:01:22.968Z,31.77
2023-05-09T12:03:52.475Z,31.69
2023-05-09T12:06:21.242Z,31.65
2023-05-09T12:08:49.594Z,31.62
2023-05-09T12:11:21.965Z,31.63
2023-05-09T12:13:52.809Z,31.68
2023-05-09T12:16:22.325Z,31.77
2023-05-09T12:18:52.211Z,31.72
2023-05-09T12:21:21.983Z,31.65
2023-05-09T12:23:53.100Z,31.69
2023-05-09T12:26:22.322Z,31.64
2023-05-09T12:28:50.793Z,31.50
2023-05-09T12:31:19.750Z,31.61
2023-05-09T12:33:48.506Z,31.51
2023-05-09T12:36:17.557Z,31.44
2023-05-09T12:38:55.720Z,31.44
2023-05-09T12:43:58.919Z,31.27
2023-05-09T12:46:27.670Z,31.13
2023-05-09T12:48:56.643Z,31.32
2023-05-09T12:51:25.656Z,31.31
2023-05-09T12:53:55.081Z,31.26
2023-05-09T12:56:23.990Z,31.36
2023-05-09T12:58:54.186Z,31.30
2023-05-09T13:01:24.361Z,31.12
2023-05-09T13:03:54.527Z,31.15
2023-05-09T13:06:24.576Z,31.25
2023-05-09T13:09:00.999Z,31.26
2023-05-09T13:11:30.607Z,31.24
2023-05-09T13:13:59.815Z,31.20
2023-05-09T13:16:28.801Z,30.94
2023-05-09T13:18:57.848Z,31.14
2023-05-09T13:21:27.094Z,30.94
2023-05-09T13:23:56.082Z,31.02
2023-05-09T13:26:25.026Z,31.01
2023-05-09T13:28:54.003Z,30.94
2023-05-09T13:31:23.619Z,30.84
2023-05-09T13:33:52.703Z,30.72
2023-05-09T13:36:21.808Z,30.81
2023-05-09T13:38:51.101Z,30.68
2023-05-09T13:41:24.091Z,30.52
2023-05-09T13:43:53.308Z,30.52
2023-05-09T13:46:22.408Z,30.56
2023-05-09T13:48:50.605Z,30.34
2023-05-09T13:51:20.072Z,30.32
2023-05-09T13:53:49.038Z,30.41
2023-05-09T13:56:18.292Z,30.41
2023-05-09T13:58:47.404Z,30.32
2023-05-09T14:01:16.424Z,30.32
2023-05-09T14:03:47.989Z,30.36
2023-05-09T14:06:16.842Z,30.23
2023-05-09T14:08:44.984Z,30.25
2023-05-09T14:11:14.168Z,30.05
2023-05-09T14:13:42.561Z,29.98
2023-05-09T14:16:10.925Z,29.81
2023-05-09T14:18:40.778Z,29.86
2023-05-09T14:21:09.650Z,30.01
2023-05-09T14:23:39.124Z,29.94
2023-05-09T14:26:08.080Z,29.88
2023-05-09T14:28:37.726Z,30.04
2023-05-09T14:31:05.965Z,29.81
2023-05-09T14:33:36.274Z,29.86
2023-05-09T14:36:06.344Z,29.84
2023-05-09T14:38:35.573Z,29.82
2023-05-09T14:41:04.661Z,29.92
2023-05-09T14:43:33.694Z,29.72
2023-05-09T14:46:02.915Z,29.85
2023-05-09T14:48:31.636Z,29.69
2023-05-09T14:51:00.925Z,29.61
2023-05-09T14:53:29.510Z,29.61
2023-05-09T14:55:58.422Z,29.59
2023-05-09T14:58:27.133Z,29.51
2023-05-09T15:00:56.975Z,29.60
2023-05-09T15:03:25.494Z,29.66
2023-05-09T15:05:54.593Z,29.68
2023-05-09T15:08:23.490Z,29.80
2023-05-09T15:10:52.278Z,29.70
2023-05-09T15:13:22.266Z,29.80
2023-05-09T15:15:51.925Z,29.70
2023-05-09T15:18:22.172Z,29.75
2023-05-09T15:20:52.394Z,29.51
2023-05-09T15:23:21.035Z,29.65
2023-05-09T15:25:49.558Z,29.70
2023-05-09T15:28:18.039Z,29.63
2023-05-09T15:30:46.375Z,29.61
2023-05-09T15:33:14.702Z,29.76
2023-05-09T15:35:44.639Z,29.73
2023-05-09T15:38:13.669Z,29.60
2023-05-09T15:40:42.870Z,29.47
2023-05-09T15:43:11.507Z,29.54
2023-05-09T15:45:45.459Z,29.54
2023-05-09T15:48:14.942Z,29.58
2023-05-09T15:50:44.747Z,29.48
2023-05-09T15:53:15.855Z,29.49
2023-05-09T15:55:44.799Z,29.42
2023-05-09T15:58:14.465Z,29.39
2023-05-09T16:00:42.816Z,29.43
2023-05-09T16:03:11.170Z,29.40
2023-05-09T16:05:43.175Z,29.43
2023-05-09T16:08:12.520Z,29.43
2023-05-09T16:10:40.979Z,29.26
2023-05-09T16:13:09.602Z,29.36
2023-05-09T16:15:38.033Z,29.39
2023-05-09T16:18:06.676Z,29.39
2023-05-09T16:20:35.763Z,29.39
2023-05-09T16:23:04.742Z,29.36
2023-05-09T16:25:35.314Z,29.35
2023-05-09T16:28:05.242Z,29.13
2023-05-09T16:30:34.757Z,29.17
2023-05-09T16:33:03.956Z,29.17
2023-05-09T16:35:32.808Z,29.16
2023-05-09T16:38:01.663Z,29.17
2023-05-09T16:40:30.716Z,29.12
2023-05-09T16:42:59.734Z,29.21
2023-05-09T16:45:29.090Z,29.14
2023-05-09T16:47:58.978Z,29.21
2023-05-09T16:50:30.339Z,29.11
2023-05-09T16:52:59.192Z,29.22
2023-05-09T16:55:27.717Z,29.12
2023-05-09T16:57:56.737Z,29.02
2023-05-09T17:00:25.585Z,29.06
2023-05-09T17:02:55.251Z,29.11
2023-05-09T17:05:24.671Z,29.30
2023-05-09T17:07:53.722Z,29.19
2023-05-09T17:10:22.715Z,29.20
2023-05-09T17:12:51.611Z,29.27
2023-05-09T17:15:20.126Z,29.27
2023-05-09T17:17:49.365Z,29.20
2023-05-09T17:20:19.515Z,29.22
2023-05-09T17:22:48.458Z,29.13
2023-05-09T17:25:18.347Z,29.29
2023-05-09T17:27:47.643Z,29.21
2023-05-09T17:30:16.620Z,29.02
2023-05-09T17:32:46.218Z,29.19
2023-05-09T17:35:15.471Z,29.12
2023-05-09T17:37:44.048Z,29.19
2023-05-09T17:40:12.688Z,29.05
2023-05-09T17:42:41.371Z,29.08
2023-05-09T17:45:11.147Z,29.22
2023-05-09T17:47:40.402Z,29.09
2023-05-09T17:50:10.796Z,29.21
2023-05-09T17:52:40.632Z,29.14
2023-05-09T17:55:09.740Z,29.15
2023-05-09T17:57:38.314Z,29.33
2023-05-09T18:00:09.482Z,29.27
2023-05-09T18:02:44.587Z,29.29
2023-05-09T18:05:13.168Z,29.33
2023-05-09T18:07:42.231Z,29.20
2023-05-09T18:10:11.434Z,29.46
2023-05-09T18:12:40.139Z,29.39
2023-05-09T18:15:08.620Z,29.38
2023-05-09T18:17:37.110Z,29.34
2023-05-09T18:20:06.814Z,29.37
2023-05-09T18:22:37.805Z,29.54
2023-05-09T18:25:06.633Z,29.50
2023-05-09T18:27:35.556Z,29.55
2023-05-09T18:30:03.919Z,29.54
2023-05-09T18:32:32.760Z,29.51
2023-05-09T18:35:01.539Z,29.65
2023-05-09T18:37:30.353Z,29.63
2023-05-09T18:39:59.312Z,29.52
2023-05-09T18:42:28.477Z,29.50
2023-05-09T18:44:57.792Z,29.44
2023-05-09T18:47:27.856Z,29.56
2023-05-09T18:49:56.054Z,29.69
2023-05-09T18:52:24.214Z,29.58
2023-05-09T18:54:52.394Z,29.75
2023-05-09T18:57:21.171Z,29.75
2023-05-09T18:59:52.444Z,29.85
2023-05-09T19:02:21.199Z,29.88
2023-05-09T19:04:51.642Z,29.76
2023-05-09T19:07:19.860Z,29.86
2023-05-09T19:09:48.118Z,30.04
2023-05-09T19:12:16.562Z,29.82
2023-05-09T19:14:44.682Z,30.10
2023-05-09T19:17:12.707Z,29.89
2023-05-09T19:19:41.013Z,29.99
2023-05-09T19:24:51.936Z,30.17
2023-05-09T19:27:20.093Z,30.11
2023-05-09T19:29:49.848Z,30.15
2023-05-09T19:32:18.899Z,30.24
2023-05-09T19:34:47.645Z,30.26
2023-05-09T19:37:15.781Z,30.29
2023-05-09T19:39:44.011Z,30.35
2023-05-09T19:42:12.368Z,30.41
2023-05-09T19:44:40.654Z,30.78
2023-05-09T19:47:10.389Z,30.82
2023-05-09T19:49:40.417Z,31.18
2023-05-09T19:52:08.546Z,31.24
2023-05-09T19:54:36.867Z,31.41
2023-05-09T19:57:06.757Z,31.30
2023-05-09T19:59:34.788Z,31.28
2023-05-09T20:02:03.201Z,31.23
2023-05-09T20:04:35.925Z,31.35
2023-05-09T20:09:50.650Z,31.42
2023-05-09T20:12:18.933Z,31.55
2023-05-09T20:14:47.717Z,31.40
2023-05-09T20:17:16.361Z,31.46
2023-05-09T20:19:44.700Z,31.42
2023-05-09T20:22:12.803Z,31.67
2023-05-09T20:24:41.008Z,31.52
2023-05-09T20:27:10.116Z,31.50
2023-05-09T20:29:38.599Z,31.65
2023-05-09T20:32:07.949Z,31.49
2023-05-09T20:34:36.328Z,31.55
2023-05-09T20:37:05.083Z,31.51
2023-05-09T20:39:33.490Z,31.56
2023-05-09T20:42:03.024Z,31.59
2023-05-09T20:44:32.661Z,31.77
2023-05-09T20:47:01.361Z,31.82
2023-05-09T20:49:31.126Z,31.88
2023-05-09T20:51:59.542Z,31.91
2023-05-09T20:54:29.347Z,31.86
2023-05-09T20:56:57.892Z,31.88
2023-05-09T20:59:26.797Z,31.85
2023-05-09T21:01:56.015Z,31.85
2023-05-09T21:04:24.444Z,32.10
2023-05-09T21:06:52.858Z,32.31
2023-05-09T21:09:21.445Z,32.54
2023-05-09T21:11:49.766Z,32.60
2023-05-09T21:14:18.266Z,32.78
2023-05-09T21:16:46.965Z,32.56
2023-05-09T21:19:15.468Z,32.64
2023-05-09T21:21:44.259Z,32.55
2023-05-09T21:24:13.560Z,32.59
2023-05-09T21:26:42.152Z,32.56
2023-05-09T21:29:10.478Z,32.66
2023-05-09T21:31:38.900Z,32.71
2023-05-09T21:34:11.064Z,32.66
2023-05-09T21:36:42.043Z,32.74
2023-05-09T21:39:11.500Z,32.71
2023-05-09T21:41:42.302Z,32.81
2023-05-09T21:44:12.622Z,32.74
2023-05-09T21:46:43.709Z,32.79
2023-05-09T21:49:13.171Z,32.88
2023-05-09T21:51:42.333Z,32.91
2023-05-09T21:54:11.500Z,32.91
2023-05-09T21:56:43.331Z,32.94
2023-05-09T21:59:11.717Z,32.94
2023-05-09T22:01:40.790Z,32.98
2023-05-09T22:04:09.768Z,33.04
2023-05-09T22:06:38.485Z,33.27
2023-05-09T22:09:07.218Z,33.23
2023-05-09T22:11:36.091Z,33.01
2023-05-09T22:14:05.283Z,33.25
2023-05-09T22:16:33.756Z,33.44
2023-05-09T22:19:02.159Z,33.39
2023-05-09T22:21:31.601Z,33.36
2023-05-09T22:23:59.967Z,33.30
2023-05-09T22:26:28.493Z,33.46
2023-05-09T22:28:57.721Z,33.38
2023-05-09T22:31:26.583Z,33.51
2023-05-09T22:33:55.533Z,33.21
2023-05-09T22:36:25.233Z,33.39
2023-05-09T22:38:54.321Z,33.48
2023-05-09T22:41:23.754Z,33.54
2023-05-09T22:43:53.023Z,33.67
2023-05-09T22:46:22.126Z,33.49
2023-05-09T22:48:51.269Z,33.51
2023-05-09T22:51:20.330Z,33.79
2023-05-09T22:53:49.568Z,33.56
2023-05-09T22:56:18.505Z,33.87
2023-05-09T22:58:47.870Z,33.96
2023-05-09T23:01:17.037Z,33.80
2023-05-09T23:03:45.998Z,33.84
2023-05-09T23:06:14.935Z,33.92
2023-05-09T23:08:43.988Z,34.11
2023-05-09T23:11:12.547Z,34.03
2023-05-09T23:13:41.533Z,34.00
2023-05-09T23:16:10.907Z,34.04
2023-05-09T23:18:40.170Z,34.25
2023-05-09T23:21:09.353Z,34.49
2023-05-09T23:23:38.485Z,34.40
2023-05-09T23:26:07.531Z,34.23
2023-05-09T23:28:36.952Z,34.34
2023-05-09T23:31:05.965Z,34.53
2023-05-09T23:33:34.620Z,34.53
2023-05-09T23:36:04.389Z,34.58
2023-05-09T23:38:33.435Z,34.60
2023-05-09T23:41:02.643Z,34.41
2023-05-09T23:43:31.882Z,34.76
2023-05-09T23:46:00.933Z,34.72
2023-05-09T23:48:29.870Z,34.70
2023-05-09T23:50:59.041Z,34.85
2023-05-09T23:53:28.295Z,34.90
2023-05-09T23:55:58.287Z,34.84
2023-05-09T23:58:27.074Z,34.89
